Time;durP1;ratioP1;P1;durP2;ratioP2;P2;SDS_P1;SDS_P2;PMS_P1;PMS_P2;Temp;Humidity;BMP_temperature;BMP_pressure;BME280_temperature;BME280_humidity;BME280_pressure;Samples;Min_cycle;Max_cycle;Signal;HPM_P1;HPM_P2
2022/07/31 00:00:29;;;;;;;7.28;2.50;;;18.80;99.90;;;;;;5066167;28;20032;-67
2022/07/31 00:02:55;;;;;;;6.75;2.40;;;18.80;99.90;;;;;;5033756;28;20033;-67
2022/07/31 00:05:21;;;;;;;4.25;2.60;;;18.70;99.90;;;;;;5018260;28;20080;-67
2022/07/31 00:07:47;;;;;;;6.57;2.47;;;18.70;99.90;;;;;;5052616;28;20045;-68
2022/07/31 00:10:13;;;;;;;4.05;2.20;;;18.60;99.90;;;;;;5056258;28;20405;-68
2022/07/31 00:12:39;;;;;;;5.18;2.70;;;18.60;99.90;;;;;;5071833;28;20105;-67
2022/07/31 00:15:08;;;;;;;4.30;2.35;;;18.60;99.90;;;;;;5057661;28;20040;-67
2022/07/31 00:17:34;;;;;;;4.10;2.15;;;18.60;99.90;;;;;;5057759;28;20033;-67
2022/07/31 00:20:00;;;;;;;5.15;2.55;;;18.60;99.90;;;;;;5074360;28;20438;-68
2022/07/31 00:22:26;;;;;;;3.60;2.03;;;18.60;99.90;;;;;;5045633;28;20127;-67
2022/07/31 00:24:52;;;;;;;4.47;2.20;;;18.60;99.90;;;;;;5074587;28;20141;-67
2022/07/31 00:27:17;;;;;;;4.10;2.40;;;18.60;99.90;;;;;;5073025;28;20043;-67
2022/07/31 00:29:43;;;;;;;7.55;2.45;;;18.60;99.90;;;;;;5074163;28;20119;-68
2022/07/31 00:32:10;;;;;;;5.68;2.28;;;18.50;99.90;;;;;;5070230;28;20037;-68
2022/07/31 00:34:35;;;;;;;6.03;2.20;;;18.50;99.90;;;;;;5055695;28;20041;-67
2022/07/31 00:37:01;;;;;;;3.85;2.30;;;18.50;99.90;;;;;;5036369;28;20037;-67
2022/07/31 00:39:27;;;;;;;4.32;2.30;;;18.50;99.90;;;;;;5054247;28;20048;-67
2022/07/31 00:41:53;;;;;;;4.20;2.25;;;18.50;99.90;;;;;;5056736;28;20043;-68
2022/07/31 00:44:20;;;;;;;6.18;2.45;;;18.50;99.90;;;;;;5057130;28;20046;-67
2022/07/31 00:46:45;;;;;;;4.85;2.50;;;18.40;99.90;;;;;;5028245;28;20512;-68
2022/07/31 00:49:11;;;;;;;4.95;2.28;;;18.40;99.90;;;;;;5042667;28;20048;-67
2022/07/31 00:51:38;;;;;;;6.30;2.50;;;18.40;99.90;;;;;;5043186;28;20079;-67
2022/07/31 00:54:05;;;;;;;5.00;2.45;;;18.40;99.90;;;;;;5053501;28;20401;-67
2022/07/31 00:56:31;;;;;;;4.93;2.50;;;18.40;99.90;;;;;;5057025;28;20036;-68
2022/07/31 00:58:56;;;;;;;3.50;2.10;;;18.40;99.90;;;;;;5073591;28;20058;-67
2022/07/31 01:01:22;;;;;;;5.63;2.50;;;18.40;99.90;;;;;;5057483;28;20394;-67
2022/07/31 01:03:49;;;;;;;4.90;2.20;;;18.30;99.90;;;;;;5046655;28;20036;-67
2022/07/31 01:06:14;;;;;;;7.38;2.55;;;18.40;99.90;;;;;;5073734;28;20509;-67
2022/07/31 01:08:40;;;;;;;3.40;2.28;;;18.30;99.90;;;;;;5073697;28;20072;-67
2022/07/31 01:11:36;;;;;;;5.90;2.60;;;18.40;99.90;;;;;;5072264;28;20043;-67
2022/07/31 01:14:05;;;;;;;5.78;2.28;;;18.40;99.90;;;;;;5055109;28;20057;-67
2022/07/31 01:16:39;;;;;;;4.63;2.20;;;18.30;99.90;;;;;;5056625;28;20047;-67
2022/07/31 01:19:14;;;;;;;4.75;2.30;;;18.30;99.90;;;;;;5073249;28;20036;-67
2022/07/31 01:21:54;;;;;;;3.88;2.45;;;18.30;99.90;;;;;;5048157;28;20033;-68
2022/07/31 01:24:38;;;;;;;6.57;2.63;;;18.30;99.90;;;;;;5068007;28;20378;-67
2022/07/31 01:27:22;;;;;;;6.68;2.45;;;18.30;99.90;;;;;;5068332;28;20374;-67
2022/07/31 01:29:52;;;;;;;4.53;2.60;;;18.20;99.90;;;;;;5034353;28;20044;-67
2022/07/31 01:32:28;;;;;;;5.82;2.60;;;18.20;99.90;;;;;;5043761;28;20493;-68
2022/07/31 01:35:01;;;;;;;5.63;2.70;;;18.20;99.90;;;;;;5047047;28;20645;-67
2022/07/31 01:37:30;;;;;;;5.28;2.50;;;18.20;99.90;;;;;;5045309;28;20032;-67
2022/07/31 01:40:02;;;;;;;7.05;2.90;;;18.20;99.90;;;;;;5015086;28;20041;-67
2022/07/31 01:42:30;;;;;;;6.88;2.85;;;18.20;99.90;;;;;;5032134;28;20040;-67
2022/07/31 01:45:00;;;;;;;7.35;2.70;;;18.10;99.90;;;;;;5016872;28;20033;-67
2022/07/31 01:47:28;;;;;;;5.75;2.70;;;18.10;99.90;;;;;;5049728;28;20025;-67
2022/07/31 01:49:54;;;;;;;4.78;2.90;;;18.10;99.90;;;;;;5014815;28;20045;-67
2022/07/31 01:52:23;;;;;;;7.50;3.03;;;18.10;99.90;;;;;;5049099;28;20685;-67
2022/07/31 01:54:51;;;;;;;8.90;2.78;;;18.10;99.90;;;;;;5021063;28;20481;-67
2022/07/31 01:57:18;;;;;;;5.15;2.80;;;18.10;99.90;;;;;;5033220;28;20040;-67
2022/07/31 01:59:47;;;;;;;9.77;3.22;;;18.00;99.90;;;;;;5040248;28;20033;-68
2022/07/31 02:02:14;;;;;;;6.55;2.90;;;18.10;99.90;;;;;;5053430;28;20044;-67
2022/07/31 02:04:40;;;;;;;6.65;3.28;;;18.20;99.90;;;;;;5034210;28;20049;-67
2022/07/31 02:07:09;;;;;;;8.40;3.22;;;18.10;99.90;;;;;;5033525;28;20634;-67
2022/07/31 02:09:37;;;;;;;6.20;3.10;;;18.10;99.90;;;;;;5031162;28;20398;-67
2022/07/31 02:12:04;;;;;;;5.93;3.47;;;18.10;99.90;;;;;;5044289;28;20121;-67
2022/07/31 02:14:30;;;;;;;6.57;3.30;;;18.10;99.90;;;;;;5052017;28;20076;-68
2022/07/31 02:16:58;;;;;;;6.88;3.58;;;18.00;99.90;;;;;;5051293;28;20095;-67
2022/07/31 02:19:25;;;;;;;8.32;3.30;;;18.00;99.90;;;;;;5040311;28;20120;-67
2022/07/31 02:21:51;;;;;;;7.05;3.20;;;18.10;99.90;;;;;;5030553;28;20034;-67
2022/07/31 02:24:17;;;;;;;5.70;3.20;;;18.10;99.90;;;;;;5014739;28;20032;-67
2022/07/31 02:26:44;;;;;;;6.70;3.40;;;17.90;99.90;;;;;;5034958;28;20040;-67
2022/07/31 02:29:12;;;;;;;7.05;3.58;;;18.10;99.90;;;;;;5051048;28;20052;-67
2022/07/31 02:31:38;;;;;;;5.32;3.00;;;18.10;99.90;;;;;;5049429;28;20522;-67
2022/07/31 02:34:04;;;;;;;6.20;3.53;;;18.00;99.90;;;;;;5033562;28;20033;-67
2022/07/31 02:36:32;;;;;;;6.85;3.10;;;18.00;99.90;;;;;;5022637;28;20236;-67
2022/07/31 02:38:58;;;;;;;5.00;3.17;;;18.10;99.90;;;;;;5018728;28;20037;-67
2022/07/31 02:41:24;;;;;;;8.63;3.80;;;18.00;99.90;;;;;;5019271;28;20447;-67
2022/07/31 02:43:50;;;;;;;5.97;3.40;;;18.00;99.90;;;;;;5030780;28;20040;-67
2022/07/31 02:46:17;;;;;;;5.47;3.17;;;18.00;99.90;;;;;;5039788;28;20406;-67
2022/07/31 02:48:43;;;;;;;5.63;3.00;;;18.00;99.90;;;;;;5015292;28;20050;-67
2022/07/31 02:51:09;;;;;;;5.88;3.05;;;17.90;99.90;;;;;;5044362;28;20124;-67
2022/07/31 02:53:36;;;;;;;7.30;3.17;;;17.90;99.90;;;;;;5047669;28;20062;-68
2022/07/31 02:56:04;;;;;;;6.20;3.03;;;17.90;99.90;;;;;;5054639;28;20124;-67
2022/07/31 02:58:30;;;;;;;7.32;3.10;;;18.00;99.90;;;;;;5054967;28;20059;-67
2022/07/31 03:01:04;;;;;;;7.32;3.30;;;18.00;99.90;;;;;;5050523;28;20886;-68
2022/07/31 03:03:30;;;;;;;5.70;2.78;;;18.10;99.90;;;;;;5035015;28;20783;-68
2022/07/31 03:05:56;;;;;;;6.00;3.10;;;18.20;99.90;;;;;;5050444;28;20098;-67
2022/07/31 03:08:22;;;;;;;8.18;3.00;;;18.10;99.90;;;;;;5053066;28;20052;-67
2022/07/31 03:10:48;;;;;;;9.32;3.28;;;18.10;99.90;;;;;;5038003;28;20045;-67
2022/07/31 03:13:15;;;;;;;5.75;2.83;;;18.10;99.90;;;;;;5035451;28;20061;-67
2022/07/31 03:15:41;;;;;;;5.97;2.80;;;18.00;99.90;;;;;;5034893;28;20140;-67
2022/07/31 03:18:10;;;;;;;6.50;2.83;;;17.90;99.90;;;;;;5034451;28;20164;-68
2022/07/31 03:20:37;;;;;;;4.97;2.60;;;17.90;99.90;;;;;;5018109;28;20040;-67
2022/07/31 03:23:04;;;;;;;6.78;2.70;;;17.90;99.90;;;;;;5034502;28;20467;-67
2022/07/31 03:25:31;;;;;;;6.55;2.80;;;17.90;99.90;;;;;;5035324;28;20071;-67
2022/07/31 03:27:58;;;;;;;5.55;2.80;;;17.80;99.90;;;;;;5050742;28;20059;-67
2022/07/31 03:30:24;;;;;;;9.55;3.15;;;17.80;99.90;;;;;;5054524;28;20048;-67
2022/07/31 03:32:51;;;;;;;7.97;2.95;;;17.90;99.90;;;;;;5047151;28;20055;-67
2022/07/31 03:35:17;;;;;;;6.53;2.90;;;17.90;99.90;;;;;;5052922;28;20091;-67
2022/07/31 03:37:44;;;;;;;6.47;2.78;;;17.90;99.90;;;;;;5038520;28;20528;-67
2022/07/31 03:40:10;;;;;;;4.80;2.75;;;17.80;99.90;;;;;;5042407;28;20068;-67
2022/07/31 03:42:36;;;;;;;5.45;2.67;;;17.80;99.90;;;;;;5018954;28;20123;-67
2022/07/31 03:45:03;;;;;;;6.15;2.70;;;17.90;99.90;;;;;;5048859;28;20553;-67
2022/07/31 03:47:29;;;;;;;6.20;2.72;;;17.90;99.90;;;;;;5042677;28;20437;-67
2022/07/31 03:49:55;;;;;;;7.93;3.13;;;17.90;99.90;;;;;;5033062;28;20124;-67
2022/07/31 03:52:21;;;;;;;7.13;2.70;;;17.90;99.90;;;;;;5033088;28;20415;-67
2022/07/31 03:54:47;;;;;;;7.15;2.78;;;17.90;99.90;;;;;;5033346;28;20044;-67
2022/07/31 03:57:14;;;;;;;8.13;2.92;;;17.80;99.90;;;;;;5035814;28;20390;-67
2022/07/31 03:59:40;;;;;;;7.43;2.60;;;17.80;99.90;;;;;;5050145;28;20055;-67
2022/07/31 04:02:06;;;;;;;4.55;2.55;;;17.80;99.90;;;;;;5042244;28;20129;-67
2022/07/31 04:04:33;;;;;;;5.35;2.70;;;17.80;99.90;;;;;;5023517;28;20048;-67
2022/07/31 04:06:59;;;;;;;7.97;2.85;;;17.70;99.90;;;;;;5016957;28;20044;-67
2022/07/31 04:09:24;;;;;;;5.32;2.55;;;17.70;99.90;;;;;;5033541;28;20099;-67
2022/07/31 04:11:50;;;;;;;5.20;2.63;;;17.70;99.90;;;;;;5033635;28;20124;-67
2022/07/31 04:14:15;;;;;;;5.55;2.65;;;17.70;99.90;;;;;;5033602;28;20115;-67
2022/07/31 04:16:41;;;;;;;7.13;3.05;;;17.70;99.90;;;;;;5019973;28;20041;-67
2022/07/31 04:19:07;;;;;;;6.72;3.00;;;17.70;99.90;;;;;;5033295;28;20048;-67
2022/07/31 04:21:32;;;;;;;6.30;3.08;;;17.60;99.90;;;;;;5036022;28;20508;-67
2022/07/31 04:23:58;;;;;;;6.65;2.97;;;17.70;99.90;;;;;;5032649;28;20069;-67
2022/07/31 04:26:24;;;;;;;5.28;3.03;;;17.70;99.90;;;;;;5033622;28;20528;-67
2022/07/31 04:28:50;;;;;;;4.57;2.80;;;17.70;99.90;;;;;;5026656;28;20041;-67
2022/07/31 04:31:15;;;;;;;8.07;3.33;;;17.60;99.90;;;;;;5019671;28;20427;-67
2022/07/31 04:33:42;;;;;;;5.45;2.55;;;17.70;99.90;;;;;;5038717;28;20036;-67
2022/07/31 04:36:08;;;;;;;5.20;2.38;;;17.70;99.90;;;;;;5030614;28;20068;-67
2022/07/31 04:38:34;;;;;;;4.57;2.67;;;17.70;99.90;;;;;;5051422;28;20490;-67
2022/07/31 04:40:59;;;;;;;5.03;2.65;;;17.70;99.90;;;;;;5020376;28;20039;-67
2022/07/31 04:43:25;;;;;;;5.93;2.67;;;17.70;99.90;;;;;;5033111;28;20044;-67
2022/07/31 04:45:50;;;;;;;5.45;2.95;;;17.70;99.90;;;;;;5058685;28;20509;-67
2022/07/31 04:48:16;;;;;;;6.05;2.85;;;17.70;99.90;;;;;;5034938;28;20485;-67
2022/07/31 04:50:42;;;;;;;7.75;3.03;;;17.80;99.90;;;;;;5033104;28;20044;-67
2022/07/31 04:53:07;;;;;;;6.68;3.10;;;17.80;99.90;;;;;;5018918;28;20059;-67
2022/07/31 04:55:33;;;;;;;6.85;2.83;;;17.80;99.90;;;;;;5032406;28;20377;-67
2022/07/31 04:57:58;;;;;;;5.00;2.65;;;17.80;99.90;;;;;;5018724;28;20098;-67
2022/07/31 05:00:24;;;;;;;6.13;3.03;;;17.80;99.90;;;;;;5039042;28;20029;-68
2022/07/31 05:02:50;;;;;;;5.75;2.85;;;17.80;99.90;;;;;;5035083;28;20220;-67
2022/07/31 05:05:17;;;;;;;5.40;2.80;;;17.90;99.90;;;;;;5032124;28;20187;-67
2022/07/31 05:07:43;;;;;;;6.05;2.83;;;17.90;99.90;;;;;;5033646;28;20051;-67
2022/07/31 05:10:09;;;;;;;6.70;2.50;;;18.00;99.90;;;;;;5032976;28;20045;-67
2022/07/31 05:12:34;;;;;;;4.63;2.40;;;17.90;99.90;;;;;;5034006;28;20082;-67
2022/07/31 05:15:00;;;;;;;5.55;2.90;;;17.90;99.90;;;;;;5035995;28;20040;-67
2022/07/31 05:17:26;;;;;;;6.10;2.70;;;17.90;99.90;;;;;;5034551;28;20040;-67
2022/07/31 05:19:51;;;;;;;6.60;3.03;;;17.90;99.90;;;;;;5032433;28;20043;-67
2022/07/31 05:22:17;;;;;;;5.95;3.10;;;17.90;99.90;;;;;;5033381;28;20028;-67
2022/07/31 05:24:43;;;;;;;5.60;2.90;;;17.90;99.90;;;;;;5038014;28;20469;-67
2022/07/31 05:27:09;;;;;;;5.82;2.83;;;18.00;99.90;;;;;;5034649;28;20059;-67
2022/07/31 05:29:34;;;;;;;6.10;2.95;;;18.00;99.90;;;;;;5036726;28;20045;-67
2022/07/31 05:32:00;;;;;;;7.10;3.50;;;17.90;99.90;;;;;;5037023;28;20551;-67
2022/07/31 05:34:28;;;;;;;4.05;2.67;;;17.90;99.90;;;;;;5038424;28;21482;-67
2022/07/31 05:36:54;;;;;;;6.00;3.30;;;18.00;99.90;;;;;;5067076;28;20040;-67
2022/07/31 05:39:20;;;;;;;5.60;3.10;;;18.00;99.90;;;;;;5033888;28;20547;-68
2022/07/31 05:41:47;;;;;;;4.72;2.97;;;18.00;99.90;;;;;;5033580;28;20642;-68
2022/07/31 05:44:13;;;;;;;6.20;3.28;;;18.00;99.90;;;;;;5031952;28;20036;-67
2022/07/31 05:46:39;;;;;;;7.15;3.50;;;18.00;99.90;;;;;;5024046;28;20450;-67
2022/07/31 05:49:04;;;;;;;6.43;3.20;;;18.10;99.90;;;;;;5019392;28;20049;-67
2022/07/31 05:51:30;;;;;;;6.30;3.50;;;18.10;99.90;;;;;;5049874;28;20048;-67
2022/07/31 05:53:55;;;;;;;7.03;3.80;;;18.10;99.90;;;;;;5015834;28;20508;-67
2022/07/31 05:56:21;;;;;;;6.43;3.85;;;18.10;99.90;;;;;;5033894;28;20107;-67
2022/07/31 05:58:47;;;;;;;6.22;3.75;;;18.20;99.90;;;;;;5040107;28;20077;-67
2022/07/31 06:01:13;;;;;;;6.20;3.10;;;18.20;99.90;;;;;;5040493;28;20068;-67
2022/07/31 06:03:39;;;;;;;6.72;3.88;;;18.20;99.90;;;;;;5034502;28;20041;-67
2022/07/31 06:06:05;;;;;;;6.60;3.78;;;18.20;99.90;;;;;;5048521;28;20131;-67
2022/07/31 06:08:32;;;;;;;7.55;3.92;;;18.20;99.90;;;;;;5031668;28;20032;-67
2022/07/31 06:10:58;;;;;;;7.43;3.97;;;18.30;99.90;;;;;;5030244;28;20041;-67
2022/07/31 06:13:28;;;;;;;7.00;4.03;;;18.30;99.90;;;;;;5032462;28;20643;-67
2022/07/31 06:15:55;;;;;;;10.13;3.97;;;18.30;99.90;;;;;;5031075;28;20045;-68
2022/07/31 06:18:22;;;;;;;6.57;3.90;;;18.40;99.90;;;;;;5038322;28;21399;-67
2022/07/31 06:20:48;;;;;;;8.63;4.30;;;18.40;99.90;;;;;;5031065;28;20056;-67
2022/07/31 06:23:14;;;;;;;7.63;4.03;;;18.40;99.90;;;;;;5047130;28;20048;-67
2022/07/31 06:25:39;;;;;;;8.45;3.72;;;18.40;99.90;;;;;;5016548;28;20472;-67
2022/07/31 06:28:05;;;;;;;6.78;3.80;;;18.50;99.90;;;;;;5034789;28;20048;-67
2022/07/31 06:30:30;;;;;;;8.00;4.10;;;18.50;99.90;;;;;;5032146;28;20044;-68
2022/07/31 06:32:56;;;;;;;8.00;4.20;;;18.60;99.90;;;;;;5014050;28;20051;-68
2022/07/31 06:35:22;;;;;;;7.45;4.13;;;18.50;99.90;;;;;;5039445;28;20405;-68
2022/07/31 06:37:47;;;;;;;8.05;4.28;;;18.50;99.90;;;;;;5060769;28;20040;-69
2022/07/31 06:40:13;;;;;;;8.60;4.63;;;18.60;99.90;;;;;;5047122;28;20841;-68
2022/07/31 06:42:39;;;;;;;8.10;4.38;;;18.60;99.90;;;;;;5037659;28;20033;-68
2022/07/31 06:45:05;;;;;;;8.35;4.47;;;18.60;99.90;;;;;;5030843;28;20046;-68
2022/07/31 06:47:31;;;;;;;9.18;4.43;;;18.60;99.90;;;;;;5032490;28;20152;-68
2022/07/31 06:49:57;;;;;;;8.02;4.55;;;18.60;99.90;;;;;;5015495;28;20509;-68
2022/07/31 06:52:22;;;;;;;6.90;4.50;;;18.70;99.90;;;;;;5031119;28;20439;-68
2022/07/31 06:54:48;;;;;;;9.38;4.70;;;18.70;99.90;;;;;;5030377;28;20397;-68
2022/07/31 06:57:14;;;;;;;9.20;4.45;;;18.70;99.90;;;;;;5016505;28;20032;-68
2022/07/31 06:59:40;;;;;;;8.13;4.72;;;18.80;99.90;;;;;;5037107;28;20552;-68
2022/07/31 07:02:06;;;;;;;9.63;4.50;;;18.80;99.90;;;;;;5035115;28;20511;-68
2022/07/31 07:04:32;;;;;;;7.68;4.47;;;18.90;99.90;;;;;;5030228;28;20044;-68
2022/07/31 07:06:57;;;;;;;8.48;4.78;;;18.90;99.90;;;;;;5031336;28;20781;-68
2022/07/31 07:09:23;;;;;;;8.15;5.40;;;19.10;99.90;;;;;;5025329;28;20033;-68
2022/07/31 07:11:48;;;;;;;7.15;4.45;;;19.00;99.90;;;;;;5049753;28;20087;-68
2022/07/31 07:14:15;;;;;;;7.82;4.35;;;19.00;99.90;;;;;;5051245;28;20067;-68
2022/07/31 07:16:40;;;;;;;8.02;4.80;;;19.00;99.90;;;;;;5039930;28;20049;-68
2022/07/31 07:19:06;;;;;;;7.78;4.63;;;19.00;99.90;;;;;;5062679;28;20037;-68
2022/07/31 07:21:32;;;;;;;7.88;4.85;;;19.00;99.90;;;;;;5048422;28;20065;-68
2022/07/31 07:23:57;;;;;;;8.15;4.68;;;19.00;99.90;;;;;;5035181;28;20092;-68
2022/07/31 07:26:23;;;;;;;7.10;4.78;;;19.00;99.90;;;;;;5050442;28;20039;-68
2022/07/31 07:28:49;;;;;;;7.75;5.07;;;19.00;99.90;;;;;;5019720;28;20049;-68
2022/07/31 07:31:14;;;;;;;8.80;4.65;;;19.10;99.90;;;;;;5050416;28;20115;-68
2022/07/31 07:33:40;;;;;;;8.13;4.93;;;19.00;99.90;;;;;;5042260;28;20072;-68
2022/07/31 07:36:06;;;;;;;8.88;5.07;;;19.10;99.90;;;;;;5052837;28;20076;-68
2022/07/31 07:38:31;;;;;;;8.25;5.05;;;19.10;99.90;;;;;;5069442;28;20043;-68
2022/07/31 07:40:57;;;;;;;8.40;4.88;;;19.10;99.90;;;;;;5041270;28;20033;-67
2022/07/31 07:43:22;;;;;;;8.68;5.38;;;19.20;99.90;;;;;;5043609;28;20039;-68
2022/07/31 07:45:48;;;;;;;8.90;5.15;;;19.30;99.90;;;;;;5053661;28;20040;-70
2022/07/31 07:48:14;;;;;;;9.75;5.55;;;19.40;99.90;;;;;;5057175;28;20033;-70
2022/07/31 07:50:39;;;;;;;9.50;6.13;;;19.40;99.90;;;;;;5074697;28;20507;-70
2022/07/31 07:53:05;;;;;;;10.32;6.03;;;19.40;99.90;;;;;;5053062;28;20032;-68
2022/07/31 07:55:30;;;;;;;9.43;6.75;;;19.50;99.90;;;;;;5070748;28;20408;-69
2022/07/31 07:57:56;;;;;;;8.23;6.13;;;19.50;99.90;;;;;;5090337;28;20082;-69
2022/07/31 08:00:21;;;;;;;9.13;6.38;;;19.50;99.90;;;;;;5072753;28;20481;-68
2022/07/31 08:02:50;;;;;;;10.90;6.68;;;19.50;99.90;;;;;;5064726;28;20032;-68
2022/07/31 08:05:16;;;;;;;10.90;6.70;;;19.70;99.90;;;;;;5026076;28;20038;-69
2022/07/31 08:07:42;;;;;;;10.13;6.32;;;19.70;99.90;;;;;;5057527;28;20047;-69
2022/07/31 08:10:08;;;;;;;9.90;6.72;;;19.90;99.90;;;;;;5038043;28;20033;-68
2022/07/31 08:12:35;;;;;;;9.50;6.88;;;20.10;99.90;;;;;;5055562;28;20031;-68
2022/07/31 08:15:01;;;;;;;11.27;6.95;;;20.20;99.90;;;;;;5086837;28;20050;-68
2022/07/31 08:17:27;;;;;;;9.50;6.40;;;20.30;99.90;;;;;;5071453;28;20036;-68
2022/07/31 08:19:52;;;;;;;11.93;7.30;;;20.40;99.90;;;;;;5028351;28;20418;-68
2022/07/31 08:22:18;;;;;;;9.82;7.43;;;20.40;99.90;;;;;;5053234;28;20458;-68
2022/07/31 08:24:44;;;;;;;11.35;7.32;;;20.50;99.90;;;;;;5060155;28;20087;-68
2022/07/31 08:27:23;;;;;;;10.13;7.30;;;20.50;99.90;;;;;;5031259;28;20529;-68
2022/07/31 08:29:50;;;;;;;10.30;8.13;;;20.50;99.90;;;;;;5049314;28;20508;-68
2022/07/31 08:32:16;;;;;;;9.70;7.80;;;20.50;99.90;;;;;;5072871;28;20400;-68
2022/07/31 08:34:42;;;;;;;11.23;8.07;;;20.50;99.90;;;;;;5056713;28;20044;-69
2022/07/31 08:37:08;;;;;;;9.82;7.45;;;20.60;99.90;;;;;;5047170;28;20045;-68
2022/07/31 08:39:34;;;;;;;11.25;7.63;;;20.50;99.90;;;;;;5055899;28;20464;-68
2022/07/31 08:42:08;;;;;;;11.25;7.70;;;20.50;99.90;;;;;;5066471;28;20122;-68
2022/07/31 08:44:41;;;;;;;10.70;7.53;;;20.50;99.90;;;;;;5066683;28;20095;-68
2022/07/31 08:47:08;;;;;;;12.38;7.82;;;20.50;99.90;;;;;;5063347;28;20045;-68
2022/07/31 08:49:41;;;;;;;12.52;8.07;;;20.40;99.90;;;;;;5051289;28;20044;-68
2022/07/31 08:52:25;;;;;;;13.05;8.27;;;20.40;99.90;;;;;;5070516;28;20131;-75
2022/07/31 08:54:53;;;;;;;9.85;7.55;;;20.40;99.90;;;;;;5027620;28;20531;-72
2022/07/31 08:57:19;;;;;;;13.85;8.63;;;20.50;99.90;;;;;;5034726;28;20045;-71
2022/07/31 08:59:45;;;;;;;12.90;8.25;;;20.40;99.90;;;;;;5050463;28;20404;-72
2022/07/31 09:02:11;;;;;;;11.15;8.45;;;20.40;99.90;;;;;;5040090;28;20086;-71
2022/07/31 09:04:38;;;;;;;13.57;8.63;;;20.40;99.90;;;;;;5055063;28;20032;-71
2022/07/31 09:07:04;;;;;;;12.30;8.25;;;20.30;99.90;;;;;;5055156;28;20089;-72
2022/07/31 09:09:30;;;;;;;11.82;8.02;;;20.30;99.90;;;;;;5083013;28;20498;-70
2022/07/31 09:11:56;;;;;;;11.43;8.02;;;20.30;99.90;;;;;;5041130;28;20120;-68
2022/07/31 09:14:26;;;;;;;13.32;8.52;;;20.30;99.90;;;;;;5070765;28;20454;-68
2022/07/31 09:16:53;;;;;;;10.48;8.68;;;20.30;99.90;;;;;;5051593;28;20045;-71
2022/07/31 09:19:20;;;;;;;13.07;8.95;;;20.30;99.90;;;;;;5071545;28;20139;-71
2022/07/31 09:21:46;;;;;;;13.10;8.07;;;20.20;99.90;;;;;;5050309;28;20083;-68
2022/07/31 09:24:23;;;;;;;13.88;9.00;;;20.20;99.90;;;;;;5033027;28;20034;-68
2022/07/31 09:27:00;;;;;;;14.23;9.15;;;20.20;99.90;;;;;;5045659;28;20078;-68
2022/07/31 09:29:40;;;;;;;13.40;8.40;;;20.20;99.90;;;;;;5032510;28;20033;-68
2022/07/31 09:32:14;;;;;;;12.02;8.52;;;20.20;99.90;;;;;;5044453;28;20041;-68
2022/07/31 09:34:42;;;;;;;13.90;9.30;;;20.20;99.90;;;;;;5072831;28;20068;-68
2022/07/31 09:37:12;;;;;;;10.88;8.70;;;20.20;99.90;;;;;;5062376;28;20120;-68
2022/07/31 09:39:38;;;;;;;12.65;10.10;;;20.20;99.90;;;;;;5069388;28;20089;-68
2022/07/31 09:42:05;;;;;;;12.80;9.38;;;20.20;99.90;;;;;;5065635;28;20036;-68
2022/07/31 09:44:39;;;;;;;12.07;9.40;;;20.20;99.90;;;;;;5055118;28;20037;-68
2022/07/31 09:47:06;;;;;;;14.60;9.80;;;20.20;99.90;;;;;;5039741;28;20041;-68
2022/07/31 09:49:34;;;;;;;14.32;10.00;;;20.20;99.90;;;;;;5052162;28;20048;-68
2022/07/31 09:52:00;;;;;;;13.30;9.88;;;20.20;99.90;;;;;;5034404;28;20048;-68
2022/07/31 09:54:28;;;;;;;13.90;10.68;;;20.20;99.90;;;;;;5042267;28;20603;-68
2022/07/31 09:56:55;;;;;;;15.40;11.20;;;20.20;99.90;;;;;;5035291;28;20052;-68
2022/07/31 09:59:21;;;;;;;12.48;10.48;;;20.20;99.90;;;;;;5042591;28;20453;-68
2022/07/31 10:01:47;;;;;;;13.75;11.35;;;20.20;99.90;;;;;;5053241;28;20044;-68
2022/07/31 10:04:16;;;;;;;14.65;11.43;;;20.20;99.90;;;;;;5056457;28;20092;-68
2022/07/31 10:06:44;;;;;;;13.27;10.38;;;20.10;99.90;;;;;;5051830;28;20047;-68
2022/07/31 10:09:10;;;;;;;14.98;10.75;;;20.10;99.90;;;;;;5034110;28;20110;-68
2022/07/31 10:11:38;;;;;;;13.52;11.23;;;20.10;99.90;;;;;;5050638;28;20143;-68
2022/07/31 10:14:06;;;;;;;14.93;10.90;;;20.10;99.90;;;;;;5050394;28;20493;-68
2022/07/31 10:16:38;;;;;;;12.07;9.60;;;20.10;99.90;;;;;;5037996;28;20044;-69
2022/07/31 10:19:10;;;;;;;18.58;11.20;;;20.10;99.90;;;;;;5056956;28;20098;-68
2022/07/31 10:21:43;;;;;;;14.98;11.50;;;20.10;99.90;;;;;;5051020;28;20037;-68
2022/07/31 10:24:10;;;;;;;13.50;10.88;;;20.00;99.90;;;;;;5051749;28;20131;-69
2022/07/31 10:26:36;;;;;;;12.68;10.98;;;20.10;99.90;;;;;;5053785;28;20040;-68
2022/07/31 10:29:02;;;;;;;14.20;11.40;;;20.10;99.90;;;;;;5047502;28;20046;-69
2022/07/31 10:31:30;;;;;;;12.75;10.80;;;20.20;99.90;;;;;;5065191;28;20036;-69
2022/07/31 10:33:57;;;;;;;15.45;11.15;;;20.20;99.90;;;;;;5069988;28;20051;-69
2022/07/31 10:36:35;;;;;;;14.77;11.75;;;20.20;99.90;;;;;;5026480;28;20040;-69
2022/07/31 10:39:23;;;;;;;14.60;9.93;;;20.20;99.90;;;;;;5050600;28;20091;-69
2022/07/31 10:41:58;;;;;;;14.90;9.68;;;20.30;99.90;;;;;;5043554;28;20041;-69
2022/07/31 10:44:40;;;;;;;14.23;10.40;;;20.30;99.90;;;;;;5036435;28;20038;-69
2022/07/31 10:47:13;;;;;;;12.77;9.95;;;20.30;99.90;;;;;;5041328;28;20048;-69
2022/07/31 10:49:47;;;;;;;12.50;9.38;;;20.20;99.90;;;;;;5059195;28;20041;-69
2022/07/31 10:52:25;;;;;;;12.00;10.15;;;20.20;99.90;;;;;;5031930;28;20042;-69
2022/07/31 10:54:50;;;;;;;13.10;9.75;;;20.20;99.90;;;;;;5031895;28;20136;-69
2022/07/31 10:57:27;;;;;;;12.02;9.90;;;20.20;99.90;;;;;;5027182;28;20116;-69
2022/07/31 10:59:53;;;;;;;11.52;9.27;;;20.20;99.90;;;;;;5040872;28;20124;-69
2022/07/31 11:02:30;;;;;;;16.17;9.95;;;20.30;99.90;;;;;;5062060;28;20178;-69
2022/07/31 11:05:10;;;;;;;13.80;10.43;;;20.30;99.90;;;;;;5031246;28;20429;-69
2022/07/31 11:07:36;;;;;;;12.80;10.02;;;20.20;99.90;;;;;;5044161;28;20067;-69
2022/07/31 11:10:19;;;;;;;12.07;9.45;;;20.30;99.90;;;;;;5036250;28;20069;-69
2022/07/31 11:12:45;;;;;;;12.70;10.05;;;20.20;99.90;;;;;;5033173;28;20060;-69
2022/07/31 11:15:22;;;;;;;13.07;9.93;;;20.20;99.90;;;;;;5021187;28;20532;-69
2022/07/31 11:17:48;;;;;;;11.63;9.98;;;20.10;99.90;;;;;;5057887;28;20033;-69
2022/07/31 11:20:19;;;;;;;12.27;10.57;;;20.10;99.90;;;;;;5035218;28;20519;-69
2022/07/31 11:22:52;;;;;;;13.57;11.05;;;20.10;99.90;;;;;;5052693;28;20040;-69
2022/07/31 11:25:18;;;;;;;12.77;10.55;;;20.10;99.90;;;;;;5036187;28;20041;-69
2022/07/31 11:27:44;;;;;;;12.50;11.20;;;20.10;99.90;;;;;;5034368;28;20040;-69
2022/07/31 11:30:10;;;;;;;13.68;11.20;;;20.10;99.90;;;;;;5027557;28;20109;-69
2022/07/31 11:32:35;;;;;;;12.95;11.52;;;20.10;99.90;;;;;;5039129;28;20385;-69
2022/07/31 11:35:01;;;;;;;13.23;11.00;;;20.10;99.90;;;;;;5055174;28;20041;-69
2022/07/31 11:37:29;;;;;;;15.13;11.77;;;20.10;99.90;;;;;;5049636;28;20519;-69
2022/07/31 11:39:56;;;;;;;14.23;12.20;;;20.10;99.90;;;;;;5056729;28;20405;-69
2022/07/31 11:42:23;;;;;;;13.35;11.95;;;20.10;99.90;;;;;;5046595;28;20450;-68
2022/07/31 11:44:50;;;;;;;15.05;12.10;;;20.00;99.90;;;;;;5074475;28;20047;-69
2022/07/31 11:47:15;;;;;;;15.02;11.60;;;20.10;99.90;;;;;;5072489;28;20123;-68
2022/07/31 11:49:41;;;;;;;16.35;12.68;;;20.00;99.90;;;;;;5057705;28;20552;-68
2022/07/31 11:52:11;;;;;;;16.23;13.35;;;20.10;99.90;;;;;;5073290;28;20045;-68
2022/07/31 11:54:37;;;;;;;14.95;12.52;;;20.00;99.90;;;;;;5036762;28;20046;-68
2022/07/31 11:57:04;;;;;;;16.85;12.60;;;20.00;99.90;;;;;;5037320;28;20501;-68
2022/07/31 11:59:30;;;;;;;14.93;13.05;;;20.00;99.90;;;;;;5054870;28;20494;-68
2022/07/31 12:02:03;;;;;;;15.02;13.38;;;20.00;99.90;;;;;;5056072;28;20065;-67
2022/07/31 12:04:30;;;;;;;15.82;13.52;;;19.90;99.90;;;;;;5029887;28;20033;-67
2022/07/31 12:06:56;;;;;;;17.58;13.68;;;19.90;99.90;;;;;;5054642;28;20056;-67
2022/07/31 12:09:22;;;;;;;14.13;11.85;;;19.90;99.90;;;;;;5054478;28;20045;-66
2022/07/31 12:11:48;;;;;;;13.48;11.55;;;19.90;99.90;;;;;;5054821;28;20044;-66
2022/07/31 12:14:13;;;;;;;15.13;11.40;;;19.80;99.90;;;;;;5054330;28;20056;-67
2022/07/31 12:16:42;;;;;;;14.00;11.88;;;19.90;99.90;;;;;;5038034;28;20045;-67
2022/07/31 12:19:08;;;;;;;13.85;11.73;;;19.80;99.90;;;;;;5063878;28;20037;-66
2022/07/31 12:21:35;;;;;;;15.07;11.23;;;19.80;99.90;;;;;;5063182;28;20404;-67
2022/07/31 12:24:08;;;;;;;13.57;11.02;;;19.70;99.90;;;;;;5050371;28;20038;-66
2022/07/31 12:26:34;;;;;;;15.43;12.07;;;19.70;99.90;;;;;;5015758;28;20429;-66
2022/07/31 12:29:02;;;;;;;15.20;11.73;;;19.70;99.90;;;;;;5050029;28;20102;-66
2022/07/31 12:31:29;;;;;;;16.13;12.43;;;19.70;99.90;;;;;;5027635;28;20111;-66
2022/07/31 12:33:55;;;;;;;14.73;11.82;;;19.70;99.90;;;;;;5068546;28;20396;-66
2022/07/31 12:36:20;;;;;;;14.50;11.90;;;19.60;99.90;;;;;;5036641;28;20040;-66
2022/07/31 12:38:56;;;;;;;16.02;13.80;;;19.60;99.90;;;;;;5037187;28;20037;-66
2022/07/31 12:41:22;;;;;;;17.10;14.10;;;19.70;99.90;;;;;;5033898;28;20397;-66